sensor_id;sensor_type;location;lat;lon;timestamp;P1;durP1;ratioP1;P2;durP2;ratioP2
22922;SDS011;11627;51.322;22.816;2023-04-01T00:01:01;35.78;;;19.50;;
22922;SDS011;11627;51.322;22.816;2023-04-01T00:03:28;36.05;;;20.30;;
22922;SDS011;11627;51.322;22.816;2023-04-01T00:05:58;33.65;;;19.30;;
22922;SDS011;11627;51.322;22.816;2023-04-01T00:08:24;32.10;;;18.77;;
22922;SDS011;11627;51.322;22.816;2023-04-01T00:10:52;36.95;;;18.52;;
22922;SDS011;11627;51.322;22.816;2023-04-01T00:13:20;53.90;;;26.38;;
22922;SDS011;11627;51.322;22.816;2023-04-01T00:15:46;51.67;;;25.90;;
22922;SDS011;11627;51.322;22.816;2023-04-01T00:18:14;38.80;;;21.42;;
22922;SDS011;11627;51.322;22.816;2023-04-01T00:20:50;40.28;;;22.13;;
22922;SDS011;11627;51.322;22.816;2023-04-01T00:23:17;36.60;;;19.63;;
22922;SDS011;11627;51.322;22.816;2023-04-01T00:25:44;34.28;;;18.02;;
22922;SDS011;11627;51.322;22.816;2023-04-01T00:28:12;37.42;;;19.23;;
22922;SDS011;11627;51.322;22.816;2023-04-01T00:30:37;29.25;;;17.55;;
22922;SDS011;11627;51.322;22.816;2023-04-01T00:33:03;30.00;;;17.30;;
22922;SDS011;11627;51.322;22.816;2023-04-01T00:35:30;29.42;;;16.50;;
22922;SDS011;11627;51.322;22.816;2023-04-01T00:37:58;25.30;;;16.20;;
22922;SDS011;11627;51.322;22.816;2023-04-01T00:40:32;25.77;;;16.08;;
22922;SDS011;11627;51.322;22.816;2023-04-01T00:43:16;32.55;;;18.05;;
22922;SDS011;11627;51.322;22.816;2023-04-01T00:45:46;28.83;;;16.70;;
22922;SDS011;11627;51.322;22.816;2023-04-01T00:50:46;29.60;;;16.55;;
22922;SDS011;11627;51.322;22.816;2023-04-01T00:53:43;35.10;;;18.00;;
22922;SDS011;11627;51.322;22.816;2023-04-01T00:56:26;30.27;;;16.52;;
22922;SDS011;11627;51.322;22.816;2023-04-01T00:59:02;28.65;;;16.15;;
22922;SDS011;11627;51.322;22.816;2023-04-01T01:01:33;29.30;;;16.77;;
22922;SDS011;11627;51.322;22.816;2023-04-01T01:04:01;28.05;;;16.48;;
22922;SDS011;11627;51.322;22.816;2023-04-01T01:09:12;30.48;;;17.77;;
22922;SDS011;11627;51.322;22.816;2023-04-01T01:29:46;30.92;;;17.30;;
22922;SDS011;11627;51.322;22.816;2023-04-01T01:32:33;28.75;;;17.27;;
22922;SDS011;11627;51.322;22.816;2023-04-01T01:35:31;31.20;;;17.33;;
22922;SDS011;11627;51.322;22.816;2023-04-01T01:38:13;30.27;;;17.23;;
22922;SDS011;11627;51.322;22.816;2023-04-01T01:40:42;34.22;;;18.05;;
22922;SDS011;11627;51.322;22.816;2023-04-01T01:43:14;31.38;;;17.27;;
22922;SDS011;11627;51.322;22.816;2023-04-01T01:45:47;31.38;;;16.73;;
22922;SDS011;11627;51.322;22.816;2023-04-01T01:48:17;28.73;;;16.88;;
22922;SDS011;11627;51.322;22.816;2023-04-01T01:50:45;34.65;;;18.33;;
22922;SDS011;11627;51.322;22.816;2023-04-01T01:53:12;32.13;;;18.25;;
22922;SDS011;11627;51.322;22.816;2023-04-01T01:55:39;28.25;;;16.33;;
22922;SDS011;11627;51.322;22.816;2023-04-01T01:58:16;28.77;;;16.73;;
22922;SDS011;11627;51.322;22.816;2023-04-01T02:01:06;29.13;;;16.40;;
22922;SDS011;11627;51.322;22.816;2023-04-01T02:03:45;28.98;;;16.02;;
22922;SDS011;11627;51.322;22.816;2023-04-01T02:06:13;28.45;;;16.80;;
22922;SDS011;11627;51.322;22.816;2023-04-01T02:08:43;26.98;;;15.98;;
22922;SDS011;11627;51.322;22.816;2023-04-01T02:11:18;27.60;;;17.00;;
22922;SDS011;11627;51.322;22.816;2023-04-01T02:16:39;29.67;;;17.40;;
22922;SDS011;11627;51.322;22.816;2023-04-01T02:20:19;31.92;;;18.45;;
22922;SDS011;11627;51.322;22.816;2023-04-01T02:22:40;30.52;;;17.80;;
22922;SDS011;11627;51.322;22.816;2023-04-01T02:25:11;31.35;;;18.17;;
22922;SDS011;11627;51.322;22.816;2023-04-01T02:27:39;31.85;;;17.48;;
22922;SDS011;11627;51.322;22.816;2023-04-01T02:30:08;30.58;;;18.33;;
22922;SDS011;11627;51.322;22.816;2023-04-01T02:32:34;30.80;;;17.27;;
22922;SDS011;11627;51.322;22.816;2023-04-01T02:35:04;32.22;;;17.98;;
22922;SDS011;11627;51.322;22.816;2023-04-01T02:37:33;33.92;;;19.27;;
22922;SDS011;11627;51.322;22.816;2023-04-01T02:40:00;31.52;;;19.02;;
22922;SDS011;11627;51.322;22.816;2023-04-01T02:42:27;32.30;;;19.35;;
22922;SDS011;11627;51.322;22.816;2023-04-01T02:44:53;29.38;;;17.98;;
22922;SDS011;11627;51.322;22.816;2023-04-01T02:47:19;30.63;;;18.23;;
22922;SDS011;11627;51.322;22.816;2023-04-01T02:49:46;30.55;;;17.55;;
22922;SDS011;11627;51.322;22.816;2023-04-01T02:52:11;36.40;;;18.13;;
22922;SDS011;11627;51.322;22.816;2023-04-01T02:54:39;32.22;;;18.00;;
22922;SDS011;11627;51.322;22.816;2023-04-01T02:57:05;30.58;;;17.17;;
22922;SDS011;11627;51.322;22.816;2023-04-01T02:59:31;29.90;;;18.75;;
22922;SDS011;11627;51.322;22.816;2023-04-01T03:01:57;29.55;;;17.95;;
22922;SDS011;11627;51.322;22.816;2023-04-01T03:04:23;34.33;;;18.02;;
22922;SDS011;11627;51.322;22.816;2023-04-01T03:06:50;28.60;;;17.33;;
22922;SDS011;11627;51.322;22.816;2023-04-01T03:09:17;31.10;;;17.80;;
22922;SDS011;11627;51.322;22.816;2023-04-01T03:11:43;28.92;;;17.25;;
22922;SDS011;11627;51.322;22.816;2023-04-01T03:14:08;31.98;;;18.38;;
22922;SDS011;11627;51.322;22.816;2023-04-01T03:16:36;31.70;;;17.65;;
22922;SDS011;11627;51.322;22.816;2023-04-01T03:19:03;32.80;;;18.23;;
22922;SDS011;11627;51.322;22.816;2023-04-01T03:21:28;28.88;;;17.45;;
22922;SDS011;11627;51.322;22.816;2023-04-01T03:23:54;31.88;;;17.08;;
22922;SDS011;11627;51.322;22.816;2023-04-01T03:26:20;30.17;;;17.40;;
22922;SDS011;11627;51.322;22.816;2023-04-01T03:28:46;30.20;;;17.83;;
22922;SDS011;11627;51.322;22.816;2023-04-01T03:31:12;30.58;;;16.73;;
22922;SDS011;11627;51.322;22.816;2023-04-01T03:33:38;28.65;;;17.17;;
22922;SDS011;11627;51.322;22.816;2023-04-01T03:36:06;29.10;;;17.27;;
22922;SDS011;11627;51.322;22.816;2023-04-01T03:38:33;30.83;;;16.45;;
22922;SDS011;11627;51.322;22.816;2023-04-01T03:41:00;29.58;;;16.85;;
22922;SDS011;11627;51.322;22.816;2023-04-01T03:43:28;30.88;;;18.10;;
22922;SDS011;11627;51.322;22.816;2023-04-01T03:45:53;35.65;;;17.77;;
22922;SDS011;11627;51.322;22.816;2023-04-01T03:48:20;32.25;;;17.60;;
22922;SDS011;11627;51.322;22.816;2023-04-01T03:50:46;32.55;;;18.02;;
22922;SDS011;11627;51.322;22.816;2023-04-01T03:53:12;29.90;;;16.25;;
22922;SDS011;11627;51.322;22.816;2023-04-01T03:55:38;26.02;;;16.75;;
22922;SDS011;11627;51.322;22.816;2023-04-01T03:58:06;29.52;;;18.05;;
22922;SDS011;11627;51.322;22.816;2023-04-01T04:00:32;31.95;;;18.33;;
22922;SDS011;11627;51.322;22.816;2023-04-01T04:02:58;36.17;;;19.48;;
22922;SDS011;11627;51.322;22.816;2023-04-01T04:05:24;31.83;;;19.33;;
22922;SDS011;11627;51.322;22.816;2023-04-01T04:07:52;35.08;;;19.63;;
22922;SDS011;11627;51.322;22.816;2023-04-01T04:10:18;33.85;;;18.83;;
22922;SDS011;11627;51.322;22.816;2023-04-01T04:12:45;30.45;;;18.48;;
22922;SDS011;11627;51.322;22.816;2023-04-01T04:15:11;34.80;;;18.35;;
22922;SDS011;11627;51.322;22.816;2023-04-01T04:17:37;36.63;;;19.38;;
22922;SDS011;11627;51.322;22.816;2023-04-01T04:20:05;32.00;;;18.55;;
22922;SDS011;11627;51.322;22.816;2023-04-01T04:22:33;31.35;;;18.13;;
22922;SDS011;11627;51.322;22.816;2023-04-01T04:24:59;31.45;;;18.30;;
22922;SDS011;11627;51.322;22.816;2023-04-01T04:27:25;36.45;;;18.90;;
22922;SDS011;11627;51.322;22.816;2023-04-01T04:29:52;31.80;;;18.83;;
22922;SDS011;11627;51.322;22.816;2023-04-01T04:32:18;33.72;;;19.10;;
22922;SDS011;11627;51.322;22.816;2023-04-01T04:34:43;32.20;;;19.33;;
22922;SDS011;11627;51.322;22.816;2023-04-01T04:37:10;33.63;;;19.02;;
22922;SDS011;11627;51.322;22.816;2023-04-01T04:39:36;33.03;;;20.20;;
22922;SDS011;11627;51.322;22.816;2023-04-01T04:42:03;38.90;;;19.70;;
22922;SDS011;11627;51.322;22.816;2023-04-01T04:44:31;38.80;;;20.77;;
22922;SDS011;11627;51.322;22.816;2023-04-01T04:46:57;36.25;;;20.23;;
22922;SDS011;11627;51.322;22.816;2023-04-01T04:49:22;40.42;;;22.13;;
22922;SDS011;11627;51.322;22.816;2023-04-01T04:51:48;41.08;;;21.73;;
22922;SDS011;11627;51.322;22.816;2023-04-01T04:54:14;40.78;;;23.17;;
22922;SDS011;11627;51.322;22.816;2023-04-01T04:56:41;40.85;;;21.92;;
22922;SDS011;11627;51.322;22.816;2023-04-01T04:59:07;37.55;;;21.73;;
22922;SDS011;11627;51.322;22.816;2023-04-01T05:01:32;38.50;;;21.65;;
22922;SDS011;11627;51.322;22.816;2023-04-01T05:03:58;40.70;;;22.02;;
22922;SDS011;11627;51.322;22.816;2023-04-01T05:06:25;37.75;;;20.75;;
22922;SDS011;11627;51.322;22.816;2023-04-01T05:08:54;36.35;;;21.88;;
22922;SDS011;11627;51.322;22.816;2023-04-01T05:11:20;43.40;;;22.55;;
22922;SDS011;11627;51.322;22.816;2023-04-01T05:13:46;36.65;;;22.58;;
22922;SDS011;11627;51.322;22.816;2023-04-01T05:16:15;35.15;;;21.33;;
22922;SDS011;11627;51.322;22.816;2023-04-01T05:18:44;35.15;;;21.27;;
22922;SDS011;11627;51.322;22.816;2023-04-01T05:21:12;37.80;;;21.38;;
22922;SDS011;11627;51.322;22.816;2023-04-01T05:23:39;37.25;;;20.83;;
22922;SDS011;11627;51.322;22.816;2023-04-01T05:26:06;36.90;;;21.33;;
22922;SDS011;11627;51.322;22.816;2023-04-01T05:28:34;37.60;;;21.67;;
22922;SDS011;11627;51.322;22.816;2023-04-01T05:31:00;36.22;;;20.67;;
22922;SDS011;11627;51.322;22.816;2023-04-01T05:33:29;35.40;;;21.05;;
22922;SDS011;11627;51.322;22.816;2023-04-01T05:35:55;36.08;;;21.20;;
22922;SDS011;11627;51.322;22.816;2023-04-01T05:38:22;35.00;;;20.63;;
22922;SDS011;11627;51.322;22.816;2023-04-01T05:40:47;42.30;;;22.05;;
22922;SDS011;11627;51.322;22.816;2023-04-01T05:43:13;38.38;;;21.83;;
22922;SDS011;11627;51.322;22.816;2023-04-01T05:45:39;39.25;;;22.63;;
22922;SDS011;11627;51.322;22.816;2023-04-01T05:48:05;38.92;;;22.90;;
22922;SDS011;11627;51.322;22.816;2023-04-01T05:50:30;39.95;;;22.55;;
22922;SDS011;11627;51.322;22.816;2023-04-01T05:52:58;46.53;;;24.27;;
22922;SDS011;11627;51.322;22.816;2023-04-01T05:55:25;68.30;;;31.85;;
22922;SDS011;11627;51.322;22.816;2023-04-01T05:57:51;54.53;;;29.17;;
22922;SDS011;11627;51.322;22.816;2023-04-01T06:00:16;42.17;;;23.52;;
22922;SDS011;11627;51.322;22.816;2023-04-01T06:02:44;41.15;;;24.45;;
22922;SDS011;11627;51.322;22.816;2023-04-01T06:07:38;43.60;;;23.60;;
22922;SDS011;11627;51.322;22.816;2023-04-01T06:10:09;41.67;;;23.40;;
22922;SDS011;11627;51.322;22.816;2023-04-01T06:12:50;38.38;;;23.05;;
22922;SDS011;11627;51.322;22.816;2023-04-01T06:15:23;38.08;;;22.00;;
22922;SDS011;11627;51.322;22.816;2023-04-01T06:18:00;37.25;;;22.00;;
22922;SDS011;11627;51.322;22.816;2023-04-01T06:29:00;39.42;;;22.85;;
22922;SDS011;11627;51.322;22.816;2023-04-01T06:31:38;39.50;;;23.52;;
22922;SDS011;11627;51.322;22.816;2023-04-01T06:38:08;36.17;;;21.02;;
22922;SDS011;11627;51.322;22.816;2023-04-01T06:46:52;36.53;;;21.98;;
22922;SDS011;11627;51.322;22.816;2023-04-01T06:54:47;33.05;;;19.40;;
22922;SDS011;11627;51.322;22.816;2023-04-01T07:00:14;32.95;;;21.75;;
22922;SDS011;11627;51.322;22.816;2023-04-01T07:02:55;35.17;;;20.80;;
22922;SDS011;11627;51.322;22.816;2023-04-01T07:05:41;31.95;;;20.23;;
22922;SDS011;11627;51.322;22.816;2023-04-01T07:11:10;35.90;;;20.63;;
22922;SDS011;11627;51.322;22.816;2023-04-01T07:13:52;40.00;;;20.85;;
22922;SDS011;11627;51.322;22.816;2023-04-01T07:16:34;35.10;;;20.77;;
22922;SDS011;11627;51.322;22.816;2023-04-01T07:21:52;37.50;;;23.33;;
22922;SDS011;11627;51.322;22.816;2023-04-01T07:24:23;34.70;;;21.45;;
22922;SDS011;11627;51.322;22.816;2023-04-01T07:26:53;32.75;;;21.08;;
22922;SDS011;11627;51.322;22.816;2023-04-01T07:29:21;36.47;;;20.80;;
22922;SDS011;11627;51.322;22.816;2023-04-01T07:34:26;36.30;;;20.25;;
22922;SDS011;11627;51.322;22.816;2023-04-01T07:37:15;34.72;;;20.25;;
22922;SDS011;11627;51.322;22.816;2023-04-01T07:52:59;28.27;;;17.80;;
22922;SDS011;11627;51.322;22.816;2023-04-01T07:58:26;30.83;;;19.15;;
22922;SDS011;11627;51.322;22.816;2023-04-01T08:04:28;24.08;;;16.08;;
22922;SDS011;11627;51.322;22.816;2023-04-01T08:06:31;21.38;;;14.30;;
22922;SDS011;11627;51.322;22.816;2023-04-01T08:20:37;19.05;;;12.30;;
22922;SDS011;11627;51.322;22.816;2023-04-01T08:26:10;18.85;;;11.82;;
22922;SDS011;11627;51.322;22.816;2023-04-01T08:29:11;19.67;;;13.18;;
22922;SDS011;11627;51.322;22.816;2023-04-01T08:34:36;16.65;;;11.65;;
22922;SDS011;11627;51.322;22.816;2023-04-01T08:37:09;15.38;;;10.55;;
22922;SDS011;11627;51.322;22.816;2023-04-01T08:44:58;15.18;;;10.82;;
22922;SDS011;11627;51.322;22.816;2023-04-01T09:01:37;10.60;;;7.07;;
22922;SDS011;11627;51.322;22.816;2023-04-01T09:04:14;13.00;;;8.23;;
22922;SDS011;11627;51.322;22.816;2023-04-01T09:09:49;14.95;;;8.15;;
22922;SDS011;11627;51.322;22.816;2023-04-01T09:26:37;10.48;;;7.72;;
22922;SDS011;11627;51.322;22.816;2023-04-01T09:38:00;6.47;;;4.38;;
22922;SDS011;11627;51.322;22.816;2023-04-01T09:40:55;8.55;;;5.32;;
22922;SDS011;11627;51.322;22.816;2023-04-01T09:46:36;6.50;;;5.20;;
22922;SDS011;11627;51.322;22.816;2023-04-01T10:11:13;6.40;;;4.35;;
22922;SDS011;11627;51.322;22.816;2023-04-01T10:22:37;7.22;;;4.18;;
22922;SDS011;11627;51.322;22.816;2023-04-01T10:38:55;5.90;;;4.07;;
22922;SDS011;11627;51.322;22.816;2023-04-01T10:50:42;6.93;;;4.28;;
22922;SDS011;11627;51.322;22.816;2023-04-01T11:13:53;7.05;;;3.80;;
22922;SDS011;11627;51.322;22.816;2023-04-01T11:22:15;10.57;;;4.65;;
22922;SDS011;11627;51.322;22.816;2023-04-01T11:28:05;5.25;;;3.55;;
22922;SDS011;11627;51.322;22.816;2023-04-01T11:31:00;6.22;;;3.95;;
22922;SDS011;11627;51.322;22.816;2023-04-01T11:33:41;10.18;;;4.82;;
22922;SDS011;11627;51.322;22.816;2023-04-01T11:44:46;8.88;;;4.50;;
22922;SDS011;11627;51.322;22.816;2023-04-01T11:50:31;7.53;;;4.53;;
22922;SDS011;11627;51.322;22.816;2023-04-01T11:55:35;8.38;;;5.18;;
22922;SDS011;11627;51.322;22.816;2023-04-01T11:58:36;6.65;;;4.88;;
22922;SDS011;11627;51.322;22.816;2023-04-01T12:07:30;8.13;;;6.07;;
22922;SDS011;11627;51.322;22.816;2023-04-01T12:13:02;12.40;;;7.38;;
22922;SDS011;11627;51.322;22.816;2023-04-01T12:23:56;8.38;;;5.75;;
22922;SDS011;11627;51.322;22.816;2023-04-01T12:26:58;8.60;;;5.57;;
22922;SDS011;11627;51.322;22.816;2023-04-01T12:32:40;8.35;;;5.07;;
22922;SDS011;11627;51.322;22.816;2023-04-01T12:37:45;9.02;;;6.13;;
22922;SDS011;11627;51.322;22.816;2023-04-01T12:45:43;7.82;;;5.43;;
22922;SDS011;11627;51.322;22.816;2023-04-01T13:16:34;6.13;;;3.03;;
22922;SDS011;11627;51.322;22.816;2023-04-01T13:19:14;5.05;;;3.13;;
22922;SDS011;11627;51.322;22.816;2023-04-01T13:22:27;5.30;;;3.42;;
22922;SDS011;11627;51.322;22.816;2023-04-01T13:24:52;5.28;;;3.38;;
22922;SDS011;11627;51.322;22.816;2023-04-01T13:27:43;4.78;;;2.83;;
22922;SDS011;11627;51.322;22.816;2023-04-01T13:30:24;6.45;;;3.97;;
22922;SDS011;11627;51.322;22.816;2023-04-01T14:01:12;13.48;;;7.25;;
22922;SDS011;11627;51.322;22.816;2023-04-01T14:12:29;4.78;;;2.15;;
22922;SDS011;11627;51.322;22.816;2023-04-01T14:15:22;2.30;;;1.77;;
22922;SDS011;11627;51.322;22.816;2023-04-01T14:26:27;7.35;;;4.15;;
22922;SDS011;11627;51.322;22.816;2023-04-01T14:35:14;15.40;;;6.93;;
22922;SDS011;11627;51.322;22.816;2023-04-01T14:49:30;16.42;;;9.60;;
22922;SDS011;11627;51.322;22.816;2023-04-01T14:52:11;8.07;;;5.15;;
22922;SDS011;11627;51.322;22.816;2023-04-01T14:54:43;7.93;;;4.93;;
22922;SDS011;11627;51.322;22.816;2023-04-01T15:00:09;6.65;;;4.28;;
22922;SDS011;11627;51.322;22.816;2023-04-01T15:05:49;6.07;;;4.00;;
22922;SDS011;11627;51.322;22.816;2023-04-01T15:08:24;5.45;;;3.83;;
22922;SDS011;11627;51.322;22.816;2023-04-01T15:21:44;41.88;;;21.63;;
22922;SDS011;11627;51.322;22.816;2023-04-01T15:37:55;14.93;;;10.07;;
22922;SDS011;11627;51.322;22.816;2023-04-01T15:40:38;14.32;;;11.10;;
22922;SDS011;11627;51.322;22.816;2023-04-01T15:43:21;15.98;;;9.30;;
22922;SDS011;11627;51.322;22.816;2023-04-01T16:02:50;18.38;;;12.57;;
22922;SDS011;11627;51.322;22.816;2023-04-01T16:05:54;16.90;;;11.65;;
22922;SDS011;11627;51.322;22.816;2023-04-01T16:31:09;17.90;;;10.75;;
22922;SDS011;11627;51.322;22.816;2023-04-01T16:37:20;30.33;;;17.10;;
22922;SDS011;11627;51.322;22.816;2023-04-01T16:40:04;25.33;;;15.10;;
22922;SDS011;11627;51.322;22.816;2023-04-01T16:42:51;20.17;;;12.73;;
22922;SDS011;11627;51.322;22.816;2023-04-01T16:45:24;22.35;;;13.30;;
22922;SDS011;11627;51.322;22.816;2023-04-01T16:48:12;25.50;;;14.13;;
22922;SDS011;11627;51.322;22.816;2023-04-01T16:51:00;18.60;;;11.23;;
22922;SDS011;11627;51.322;22.816;2023-04-01T16:53:43;17.48;;;10.98;;
22922;SDS011;11627;51.322;22.816;2023-04-01T16:56:27;19.20;;;11.55;;
22922;SDS011;11627;51.322;22.816;2023-04-01T17:04:34;16.50;;;10.60;;
22922;SDS011;11627;51.322;22.816;2023-04-01T17:10:18;28.55;;;13.60;;
22922;SDS011;11627;51.322;22.816;2023-04-01T17:13:18;25.27;;;13.52;;
22922;SDS011;11627;51.322;22.816;2023-04-01T17:21:45;27.48;;;14.85;;
22922;SDS011;11627;51.322;22.816;2023-04-01T17:32:57;22.35;;;13.63;;
22922;SDS011;11627;51.322;22.816;2023-04-01T17:50:02;26.13;;;14.98;;
22922;SDS011;11627;51.322;22.816;2023-04-01T17:52:45;30.90;;;15.65;;
22922;SDS011;11627;51.322;22.816;2023-04-01T17:58:20;32.80;;;17.17;;
22922;SDS011;11627;51.322;22.816;2023-04-01T18:01:02;37.55;;;17.35;;
22922;SDS011;11627;51.322;22.816;2023-04-01T18:06:21;67.25;;;25.77;;
22922;SDS011;11627;51.322;22.816;2023-04-01T18:15:10;58.58;;;22.45;;
22922;SDS011;11627;51.322;22.816;2023-04-01T18:17:56;40.88;;;17.90;;
22922;SDS011;11627;51.322;22.816;2023-04-01T18:23:36;95.25;;;32.08;;
22922;SDS011;11627;51.322;22.816;2023-04-01T18:26:42;78.70;;;30.48;;
22922;SDS011;11627;51.322;22.816;2023-04-01T18:30:07;70.13;;;30.48;;
22922;SDS011;11627;51.322;22.816;2023-04-01T18:32:31;36.40;;;20.38;;
22922;SDS011;11627;51.322;22.816;2023-04-01T18:35:14;27.05;;;17.20;;
22922;SDS011;11627;51.322;22.816;2023-04-01T18:37:55;30.45;;;15.75;;
22922;SDS011;11627;51.322;22.816;2023-04-01T18:43:22;30.40;;;15.85;;
22922;SDS011;11627;51.322;22.816;2023-04-01T18:59:53;26.77;;;15.35;;
22922;SDS011;11627;51.322;22.816;2023-04-01T19:02:33;32.17;;;17.27;;
22922;SDS011;11627;51.322;22.816;2023-04-01T19:05:11;34.05;;;17.00;;
22922;SDS011;11627;51.322;22.816;2023-04-01T19:07:56;29.58;;;16.08;;
22922;SDS011;11627;51.322;22.816;2023-04-01T19:16:51;29.65;;;16.05;;
22922;SDS011;11627;51.322;22.816;2023-04-01T19:19:59;32.40;;;17.42;;
22922;SDS011;11627;51.322;22.816;2023-04-01T19:25:20;35.22;;;18.10;;
22922;SDS011;11627;51.322;22.816;2023-04-01T19:28:42;40.38;;;19.65;;
22922;SDS011;11627;51.322;22.816;2023-04-01T19:34:13;43.60;;;21.75;;
22922;SDS011;11627;51.322;22.816;2023-04-01T19:50:55;39.35;;;20.95;;
22922;SDS011;11627;51.322;22.816;2023-04-01T19:53:31;44.80;;;22.17;;
22922;SDS011;11627;51.322;22.816;2023-04-01T19:56:20;42.15;;;22.20;;
22922;SDS011;11627;51.322;22.816;2023-04-01T19:58:53;44.25;;;22.55;;
22922;SDS011;11627;51.322;22.816;2023-04-01T20:01:34;48.00;;;24.52;;
22922;SDS011;11627;51.322;22.816;2023-04-01T20:07:16;43.78;;;23.45;;
22922;SDS011;11627;51.322;22.816;2023-04-01T20:10:39;44.03;;;23.52;;
22922;SDS011;11627;51.322;22.816;2023-04-01T20:13:55;41.47;;;23.92;;
22922;SDS011;11627;51.322;22.816;2023-04-01T20:16:17;42.80;;;24.20;;
22922;SDS011;11627;51.322;22.816;2023-04-01T20:21:32;47.30;;;25.92;;
22922;SDS011;11627;51.322;22.816;2023-04-01T20:24:26;48.60;;;24.65;;
22922;SDS011;11627;51.322;22.816;2023-04-01T20:40:47;41.55;;;22.88;;
22922;SDS011;11627;51.322;22.816;2023-04-01T20:51:31;39.65;;;21.73;;
22922;SDS011;11627;51.322;22.816;2023-04-01T20:54:13;37.58;;;21.35;;
22922;SDS011;11627;51.322;22.816;2023-04-01T20:56:50;41.63;;;20.83;;
22922;SDS011;11627;51.322;22.816;2023-04-01T21:08:25;82.97;;;34.90;;
22922;SDS011;11627;51.322;22.816;2023-04-01T21:11:20;64.07;;;30.17;;
22922;SDS011;11627;51.322;22.816;2023-04-01T22:01:05;33.83;;;18.98;;
22922;SDS011;11627;51.322;22.816;2023-04-01T22:03:55;30.40;;;18.42;;
22922;SDS011;11627;51.322;22.816;2023-04-01T22:07:23;23.80;;;15.65;;
22922;SDS011;11627;51.322;22.816;2023-04-01T22:09:39;24.33;;;14.95;;
22922;SDS011;11627;51.322;22.816;2023-04-01T22:12:15;22.10;;;14.55;;
22922;SDS011;11627;51.322;22.816;2023-04-01T22:22:57;16.48;;;12.00;;
22922;SDS011;11627;51.322;22.816;2023-04-01T22:28:28;18.65;;;12.88;;
22922;SDS011;11627;51.322;22.816;2023-04-01T22:31:05;19.40;;;12.63;;
22922;SDS011;11627;51.322;22.816;2023-04-01T22:39:09;16.88;;;11.20;;
22922;SDS011;11627;51.322;22.816;2023-04-01T22:56:03;19.67;;;11.25;;
22922;SDS011;11627;51.322;22.816;2023-04-01T22:58:54;18.30;;;11.23;;
22922;SDS011;11627;51.322;22.816;2023-04-01T23:01:26;20.40;;;12.10;;
22922;SDS011;11627;51.322;22.816;2023-04-01T23:03:56;19.10;;;12.43;;
22922;SDS011;11627;51.322;22.816;2023-04-01T23:06:26;21.02;;;12.85;;
22922;SDS011;11627;51.322;22.816;2023-04-01T23:09:00;18.33;;;11.20;;
22922;SDS011;11627;51.322;22.816;2023-04-01T23:14:37;14.05;;;7.55;;
22922;SDS011;11627;51.322;22.816;2023-04-01T23:25:30;8.07;;;5.70;;
22922;SDS011;11627;51.322;22.816;2023-04-01T23:33:50;8.60;;;5.78;;
22922;SDS011;11627;51.322;22.816;2023-04-01T23:38:34;14.05;;;7.97;;
22922;SDS011;11627;51.322;22.816;2023-04-01T23:41:02;10.82;;;7.18;;
22922;SDS011;11627;51.322;22.816;2023-04-01T23:43:40;10.30;;;7.38;;
22922;SDS011;11627;51.322;22.816;2023-04-01T23:46:10;10.83;;;7.70;;
22922;SDS011;11627;51.322;22.816;2023-04-01T23:48:43;10.48;;;8.45;;
22922;SDS011;11627;51.322;22.816;2023-04-01T23:51:29;11.80;;;8.40;;
22922;SDS011;11627;51.322;22.816;2023-04-01T23:54:16;11.82;;;8.40;;
22922;SDS011;11627;51.322;22.816;2023-04-01T23:56:45;12.63;;;9.32;;
22922;SDS011;11627;51.322;22.816;2023-04-01T23:59:14;10.88;;;7.85;;
